createdAt,value
2023-03-07T00:01:08.651Z,22.05
2023-03-07T00:03:37.132Z,21.15
2023-03-07T00:06:09.073Z,19.98
2023-03-07T00:11:06.688Z,20.83
2023-03-07T00:13:34.264Z,19.33
2023-03-07T00:16:09.030Z,21.45
2023-03-07T00:18:35.698Z,21.25
2023-03-07T00:21:06.342Z,21.33
2023-03-07T00:23:34.340Z,20.98
2023-03-07T00:26:09.081Z,21.02
2023-03-07T00:28:35.568Z,22.70
2023-03-07T00:31:07.705Z,21.23
2023-03-07T00:33:35.123Z,22.90
2023-03-07T00:36:04.757Z,22.05
2023-03-07T00:38:33.082Z,20.05
2023-03-07T00:41:17.362Z,22.95
2023-03-07T00:43:47.061Z,21.73
2023-03-07T00:46:15.444Z,21.00
2023-03-07T00:48:43.463Z,21.48
2023-03-07T00:51:12.319Z,23.13
2023-03-07T00:53:39.797Z,20.67
2023-03-07T00:56:19.753Z,22.30
2023-03-07T00:58:47.304Z,22.13
2023-03-07T01:01:16.521Z,20.80
2023-03-07T01:03:43.480Z,22.15
2023-03-07T01:06:15.759Z,19.98
2023-03-07T01:08:42.480Z,20.17
2023-03-07T01:11:11.636Z,21.20
2023-03-07T01:13:38.836Z,22.38
2023-03-07T01:16:21.121Z,21.23
2023-03-07T01:18:57.146Z,21.50
2023-03-07T01:21:29.869Z,24.40
2023-03-07T01:23:56.442Z,22.80
2023-03-07T01:26:25.631Z,22.02
2023-03-07T01:28:53.414Z,21.77
2023-03-07T01:31:20.051Z,20.60
2023-03-07T01:33:51.284Z,21.20
2023-03-07T01:36:25.454Z,20.45
2023-03-07T01:38:55.764Z,22.38
2023-03-07T01:41:22.724Z,20.55
2023-03-07T01:43:49.229Z,21.38
2023-03-07T01:46:18.456Z,19.65
2023-03-07T01:48:48.542Z,20.58
2023-03-07T01:51:15.202Z,19.23
2023-03-07T01:53:41.651Z,21.70
2023-03-07T01:56:09.082Z,19.70
2023-03-07T01:58:38.936Z,21.80
2023-03-07T02:01:09.239Z,24.13
2023-03-07T02:03:41.737Z,20.40
2023-03-07T02:06:10.718Z,19.63
2023-03-07T02:08:39.038Z,21.00
2023-03-07T02:11:06.957Z,20.15
2023-03-07T02:13:33.565Z,21.38
2023-03-07T02:16:02.249Z,20.50
2023-03-07T02:18:33.672Z,22.02
2023-03-07T02:21:19.255Z,18.58
2023-03-07T02:24:01.210Z,19.92
2023-03-07T02:26:30.681Z,21.13
2023-03-07T02:28:58.629Z,21.50
2023-03-07T02:31:25.547Z,21.88
2023-03-07T02:33:52.089Z,20.77
2023-03-07T02:36:29.199Z,21.48
2023-03-07T02:38:58.414Z,22.92
2023-03-07T02:41:28.826Z,19.67
2023-03-07T02:43:55.314Z,19.85
2023-03-07T02:46:21.796Z,18.40
2023-03-07T02:48:48.408Z,20.33
2023-03-07T02:51:16.914Z,18.40
2023-03-07T02:53:43.990Z,21.73
2023-03-07T02:56:11.282Z,22.48
2023-03-07T02:58:37.739Z,19.60
2023-03-07T03:01:04.482Z,20.85
2023-03-07T03:03:31.495Z,19.02
2023-03-07T03:05:58.018Z,18.92
2023-03-07T03:08:24.640Z,18.20
2023-03-07T03:10:55.382Z,20.77
2023-03-07T03:13:22.611Z,19.52
2023-03-07T03:15:49.205Z,21.25
2023-03-07T03:18:15.846Z,20.25
2023-03-07T03:20:42.552Z,20.08
2023-03-07T03:23:12.420Z,21.08
2023-03-07T03:25:40.325Z,17.95
2023-03-07T03:28:06.878Z,21.17
2023-03-07T03:30:35.981Z,19.50
2023-03-07T03:33:03.422Z,19.38
2023-03-07T03:35:30.137Z,19.77
2023-03-07T03:37:56.740Z,21.08
2023-03-07T03:40:23.314Z,19.77
2023-03-07T03:42:50.846Z,20.33
2023-03-07T03:45:17.400Z,20.15
2023-03-07T03:47:45.015Z,19.98
2023-03-07T03:50:11.787Z,19.73
2023-03-07T03:52:45.152Z,20.23
2023-03-07T03:55:12.100Z,22.15
2023-03-07T03:57:38.899Z,25.75
2023-03-07T04:00:08.542Z,20.33
2023-03-07T04:02:35.123Z,19.45
2023-03-07T04:05:01.680Z,20.55
2023-03-07T04:07:29.153Z,21.60
2023-03-07T04:09:56.697Z,20.73
2023-03-07T04:12:24.218Z,20.45
2023-03-07T04:14:50.628Z,20.02
2023-03-07T04:17:17.088Z,20.13
2023-03-07T04:19:43.500Z,21.80
2023-03-07T04:22:11.369Z,23.10
2023-03-07T04:24:37.880Z,21.15
2023-03-07T04:27:05.095Z,22.23
2023-03-07T04:29:37.461Z,23.23
2023-03-07T04:32:04.174Z,21.05
2023-03-07T04:34:30.738Z,23.45
2023-03-07T04:36:57.371Z,25.67
2023-03-07T04:39:23.820Z,25.05
2023-03-07T04:41:50.305Z,21.77
2023-03-07T04:44:17.245Z,22.45
2023-03-07T04:46:45.763Z,21.98
2023-03-07T04:49:14.305Z,23.20
2023-03-07T04:51:43.100Z,23.70
2023-03-07T04:54:10.676Z,23.00
2023-03-07T04:56:37.326Z,25.80
2023-03-07T04:59:04.830Z,23.42
2023-03-07T05:01:31.314Z,21.63
2023-03-07T05:03:57.924Z,24.67
2023-03-07T05:06:24.746Z,21.88
2023-03-07T05:08:52.293Z,21.33
2023-03-07T05:11:18.945Z,25.52
2023-03-07T05:13:46.460Z,25.70
2023-03-07T05:16:13.153Z,20.95
2023-03-07T05:18:40.717Z,22.02
2023-03-07T05:21:07.127Z,24.40
2023-03-07T05:23:33.565Z,25.13
2023-03-07T05:26:00.063Z,22.73
2023-03-07T05:28:26.542Z,22.55
2023-03-07T05:30:53.105Z,20.70
2023-03-07T05:33:20.240Z,24.85
2023-03-07T05:35:48.097Z,23.45
2023-03-07T05:38:15.031Z,20.35
2023-03-07T05:40:41.444Z,22.58
2023-03-07T05:43:07.972Z,23.38
2023-03-07T05:45:34.480Z,23.13
2023-03-07T05:48:01.397Z,23.10
2023-03-07T05:50:27.916Z,22.58
2023-03-07T05:52:54.654Z,22.63
2023-03-07T05:55:21.385Z,20.40
2023-03-07T05:57:47.910Z,19.80
2023-03-07T06:00:15.991Z,22.83
2023-03-07T06:02:42.710Z,21.67
2023-03-07T06:05:09.505Z,21.38
2023-03-07T06:07:35.922Z,20.33
2023-03-07T06:10:02.452Z,21.38
2023-03-07T06:12:29.927Z,20.80
2023-03-07T06:14:56.366Z,23.30
2023-03-07T06:17:22.803Z,22.52
2023-03-07T06:19:49.209Z,20.48
2023-03-07T06:22:15.731Z,19.15
2023-03-07T06:24:42.698Z,21.25
2023-03-07T06:27:09.100Z,20.27
2023-03-07T06:29:36.094Z,19.33
2023-03-07T06:32:02.501Z,20.48
2023-03-07T06:34:29.015Z,18.55
2023-03-07T06:36:55.577Z,19.58
2023-03-07T06:39:22.124Z,19.90
2023-03-07T06:41:54.652Z,20.02
2023-03-07T06:44:21.208Z,18.58
2023-03-07T06:46:47.687Z,20.40
2023-03-07T06:49:14.245Z,17.35
2023-03-07T06:51:41.705Z,18.83
2023-03-07T06:54:08.235Z,17.70
2023-03-07T06:56:35.934Z,17.75
2023-03-07T06:59:03.312Z,17.77
2023-03-07T07:01:35.929Z,18.25
2023-03-07T07:04:02.437Z,18.23
2023-03-07T07:06:30.044Z,18.25
2023-03-07T07:08:57.662Z,19.52
2023-03-07T07:11:25.035Z,16.42
2023-03-07T07:13:51.634Z,16.45
2023-03-07T07:16:18.782Z,17.58
2023-03-07T07:18:45.871Z,18.98
2023-03-07T07:21:12.448Z,17.98
2023-03-07T07:23:38.988Z,17.48
2023-03-07T07:26:05.748Z,19.70
2023-03-07T07:28:34.346Z,19.52
2023-03-07T07:31:00.850Z,19.77
2023-03-07T07:33:27.686Z,17.02
2023-03-07T07:35:54.256Z,15.63
2023-03-07T07:38:20.694Z,18.00
2023-03-07T07:40:47.234Z,17.50
2023-03-07T07:43:17.744Z,17.25
2023-03-07T07:45:44.500Z,17.77
2023-03-07T07:48:11.074Z,18.00
2023-03-07T07:50:37.782Z,19.75
2023-03-07T07:53:04.722Z,16.83
2023-03-07T07:55:31.544Z,16.77
2023-03-07T07:57:58.092Z,17.95
2023-03-07T08:00:24.851Z,16.08
2023-03-07T08:02:52.393Z,16.50
2023-03-07T08:05:20.568Z,17.98
2023-03-07T08:07:47.251Z,16.13
2023-03-07T08:10:17.678Z,17.92
2023-03-07T08:12:47.701Z,17.80
2023-03-07T08:15:17.058Z,17.52
2023-03-07T08:17:44.361Z,16.30
2023-03-07T08:20:11.258Z,17.75
2023-03-07T08:22:39.530Z,18.77
2023-03-07T08:25:08.015Z,18.92
2023-03-07T08:27:34.479Z,17.55
2023-03-07T08:30:01.538Z,19.60
2023-03-07T08:32:31.317Z,19.60
2023-03-07T08:34:57.827Z,17.48
2023-03-07T08:37:24.358Z,20.10
2023-03-07T08:39:50.987Z,18.95
2023-03-07T08:42:18.611Z,20.40
2023-03-07T08:44:45.110Z,17.92
2023-03-07T08:47:13.405Z,18.88
2023-03-07T08:49:40.724Z,21.08
2023-03-07T08:52:07.292Z,22.40
2023-03-07T08:54:33.893Z,19.13
2023-03-07T08:57:00.657Z,18.90
2023-03-07T08:59:27.293Z,17.60
2023-03-07T09:01:54.071Z,20.42
2023-03-07T09:04:20.558Z,19.85
2023-03-07T09:06:47.062Z,20.02
2023-03-07T09:09:13.558Z,18.55
2023-03-07T09:11:40.062Z,20.65
2023-03-07T09:14:06.702Z,18.13
2023-03-07T09:16:33.159Z,17.02
2023-03-07T09:18:59.710Z,17.45
2023-03-07T09:21:26.196Z,18.60
2023-03-07T09:23:52.789Z,20.92
2023-03-07T09:26:19.392Z,18.80
2023-03-07T09:28:46.473Z,18.58
2023-03-07T09:31:15.432Z,19.73
2023-03-07T09:33:43.515Z,18.98
2023-03-07T09:36:12.775Z,19.02
2023-03-07T09:38:39.771Z,16.50
2023-03-07T09:41:42.512Z,18.02
2023-03-07T09:44:41.019Z,19.25
2023-03-07T09:47:25.654Z,17.83
2023-03-07T09:49:53.635Z,20.05
2023-03-07T09:52:23.547Z,18.25
2023-03-07T09:54:56.733Z,16.65
2023-03-07T09:57:28.630Z,15.75
2023-03-07T10:02:32.739Z,15.65
2023-03-07T10:05:08.295Z,16.90
2023-03-07T10:07:35.717Z,16.65
2023-03-07T10:10:12.163Z,17.45
2023-03-07T10:12:53.131Z,17.50
2023-03-07T10:15:45.819Z,16.23
2023-03-07T10:18:27.323Z,17.50
2023-03-07T10:21:12.293Z,14.82
2023-03-07T10:23:59.962Z,13.95
2023-03-07T10:26:34.625Z,15.93
2023-03-07T10:29:15.132Z,16.25
2023-03-07T10:32:04.670Z,15.60
2023-03-07T10:34:32.898Z,17.60
2023-03-07T10:37:10.845Z,16.20
2023-03-07T10:39:48.791Z,16.48
2023-03-07T10:42:17.654Z,17.27
2023-03-07T10:44:46.088Z,15.23
2023-03-07T10:47:24.339Z,15.35
2023-03-07T10:49:55.378Z,15.45
2023-03-07T10:52:33.923Z,12.63
2023-03-07T10:55:36.681Z,15.55
2023-03-07T10:58:29.963Z,14.15
2023-03-07T11:01:08.659Z,14.00
2023-03-07T11:03:58.224Z,14.52
2023-03-07T11:06:27.874Z,13.25
2023-03-07T11:08:56.210Z,16.65
2023-03-07T11:11:25.564Z,12.98
2023-03-07T11:14:18.997Z,15.30
2023-03-07T11:16:57.016Z,11.45
2023-03-07T11:19:28.825Z,14.65
2023-03-07T11:21:58.816Z,11.15
2023-03-07T11:24:27.747Z,14.18
2023-03-07T11:26:56.347Z,12.85
2023-03-07T11:29:22.923Z,11.15
2023-03-07T11:32:15.455Z,11.95
2023-03-07T11:34:52.787Z,10.63
2023-03-07T11:37:34.248Z,10.60
2023-03-07T11:40:12.705Z,11.45
2023-03-07T11:42:50.174Z,11.45
2023-03-07T11:45:33.395Z,10.98
2023-03-07T11:48:34.492Z,12.63
2023-03-07T11:51:03.320Z,12.25
2023-03-07T11:53:43.557Z,13.02
2023-03-07T11:56:35.430Z,11.48
2023-03-07T11:59:14.849Z,12.20
2023-03-07T12:01:41.238Z,12.45
2023-03-07T12:04:45.876Z,11.27
2023-03-07T12:07:15.201Z,16.08
2023-03-07T12:09:51.513Z,13.07
2023-03-07T12:12:23.903Z,14.18
2023-03-07T12:15:15.074Z,12.85
2023-03-07T12:17:56.690Z,12.90
2023-03-07T12:20:47.185Z,14.02
2023-03-07T12:23:25.616Z,13.05
2023-03-07T12:25:56.135Z,13.18
2023-03-07T12:28:32.518Z,12.60
2023-03-07T12:31:02.915Z,12.65
2023-03-07T12:33:54.097Z,12.57
2023-03-07T12:36:46.362Z,12.38
2023-03-07T12:39:18.063Z,12.98
2023-03-07T12:41:59.620Z,11.25
2023-03-07T12:44:40.034Z,11.75
2023-03-07T12:47:44.620Z,12.80
2023-03-07T12:50:17.086Z,11.30
2023-03-07T12:53:10.467Z,10.85
2023-03-07T12:55:43.168Z,9.75
2023-03-07T12:58:41.858Z,12.68
2023-03-07T13:01:17.632Z,10.30
2023-03-07T13:03:44.384Z,10.23
2023-03-07T13:06:18.271Z,10.70
2023-03-07T13:08:47.952Z,9.65
2023-03-07T13:11:22.874Z,11.25
2023-03-07T13:13:53.652Z,10.45
2023-03-07T13:16:34.333Z,10.20
2023-03-07T13:19:36.431Z,11.65
2023-03-07T13:22:24.953Z,10.38
2023-03-07T13:24:56.599Z,9.95
2023-03-07T13:27:41.047Z,14.82
2023-03-07T13:30:10.643Z,9.75
2023-03-07T13:32:52.126Z,12.48
2023-03-07T13:35:24.531Z,9.80
2023-03-07T13:37:56.999Z,10.70
2023-03-07T13:40:35.564Z,11.93
2023-03-07T13:43:03.894Z,10.05
2023-03-07T13:45:39.131Z,9.90
2023-03-07T13:48:30.485Z,11.07
2023-03-07T13:50:56.986Z,10.27
2023-03-07T13:53:45.429Z,10.70
2023-03-07T13:56:19.857Z,12.02
2023-03-07T13:58:47.472Z,11.52
2023-03-07T14:01:18.467Z,12.85
2023-03-07T14:03:51.189Z,10.68
2023-03-07T14:06:22.263Z,12.73
2023-03-07T14:08:50.781Z,10.57
2023-03-07T14:11:42.213Z,13.10
2023-03-07T14:14:35.802Z,10.02
2023-03-07T14:17:02.131Z,10.98
2023-03-07T14:19:50.261Z,9.88
2023-03-07T14:22:58.005Z,11.13
2023-03-07T14:25:31.765Z,11.05
2023-03-07T14:28:05.713Z,10.73
2023-03-07T14:30:34.109Z,11.55
2023-03-07T14:33:01.657Z,9.70
2023-03-07T14:35:39.219Z,10.25
2023-03-07T14:38:07.979Z,11.18
2023-03-07T14:40:47.478Z,11.73
2023-03-07T14:43:32.531Z,11.63
2023-03-07T14:46:40.815Z,10.02
2023-03-07T14:49:32.640Z,10.77
2023-03-07T14:52:02.195Z,10.77
2023-03-07T14:54:33.272Z,9.95
2023-03-07T14:57:03.147Z,11.05
2023-03-07T14:59:29.746Z,14.95
2023-03-07T15:01:57.251Z,10.38
2023-03-07T15:04:27.959Z,11.70
2023-03-07T15:07:00.841Z,10.77
2023-03-07T15:09:34.375Z,14.45
2023-03-07T15:12:16.832Z,10.80
2023-03-07T15:14:49.379Z,9.75
2023-03-07T15:17:28.669Z,12.20
2023-03-07T15:20:17.036Z,9.45
2023-03-07T15:22:43.631Z,11.57
2023-03-07T15:25:22.352Z,11.25
2023-03-07T15:28:05.816Z,10.07
2023-03-07T15:30:34.960Z,11.98
2023-03-07T15:33:13.806Z,10.57
2023-03-07T15:35:40.395Z,12.65
2023-03-07T15:38:15.371Z,13.30
2023-03-07T15:40:43.204Z,12.18
2023-03-07T15:43:39.232Z,12.05
2023-03-07T15:46:17.560Z,13.32
2023-03-07T15:48:52.740Z,10.20
2023-03-07T15:51:25.207Z,9.60
2023-03-07T15:54:25.622Z,10.88
2023-03-07T15:56:59.446Z,10.50
2023-03-07T15:59:37.034Z,9.23
2023-03-07T16:02:31.905Z,10.75
2023-03-07T16:05:01.768Z,14.35
2023-03-07T16:07:28.887Z,10.15
2023-03-07T16:09:57.941Z,12.07
2023-03-07T16:12:25.328Z,11.02
2023-03-07T16:14:54.898Z,13.07
2023-03-07T16:17:31.829Z,13.27
2023-03-07T16:19:58.677Z,12.90
2023-03-07T16:22:25.578Z,10.27
2023-03-07T16:24:52.169Z,13.38
2023-03-07T16:27:21.753Z,10.32
2023-03-07T16:29:50.428Z,11.98
2023-03-07T16:32:22.776Z,12.32
2023-03-07T16:34:55.077Z,16.05
2023-03-07T16:37:21.752Z,13.13
2023-03-07T16:39:48.272Z,12.23
2023-03-07T16:42:23.156Z,18.65
2023-03-07T16:44:51.660Z,13.85
2023-03-07T16:47:18.295Z,13.98
2023-03-07T16:49:46.629Z,10.55
2023-03-07T16:52:15.525Z,10.88
2023-03-07T16:54:41.995Z,10.05
2023-03-07T16:57:15.707Z,17.25
2023-03-07T16:59:45.525Z,10.55
2023-03-07T17:02:16.291Z,13.52
2023-03-07T17:04:44.364Z,11.80
2023-03-07T17:07:23.473Z,9.90
2023-03-07T17:09:50.808Z,14.02
2023-03-07T17:12:20.561Z,11.10
2023-03-07T17:14:48.204Z,13.10
2023-03-07T17:17:23.899Z,11.90
2023-03-07T17:19:57.104Z,10.32
2023-03-07T17:22:27.641Z,12.70
2023-03-07T17:24:55.039Z,10.68
2023-03-07T17:27:21.950Z,12.45
2023-03-07T17:29:52.328Z,11.90
2023-03-07T17:32:18.844Z,9.93
2023-03-07T17:34:45.340Z,11.82
2023-03-07T17:37:12.633Z,12.43
2023-03-07T17:39:40.020Z,13.55
2023-03-07T17:42:07.308Z,12.10
2023-03-07T17:44:33.780Z,12.40
2023-03-07T17:47:00.920Z,12.65
2023-03-07T17:49:36.858Z,12.52
2023-03-07T17:52:06.187Z,12.45
2023-03-07T17:54:33.282Z,13.40
2023-03-07T17:57:01.636Z,11.88
2023-03-07T17:59:31.475Z,12.60
2023-03-07T18:01:58.164Z,13.52
2023-03-07T18:04:28.491Z,12.45
2023-03-07T18:06:54.957Z,12.43
2023-03-07T18:09:23.040Z,15.35
2023-03-07T18:11:49.729Z,10.57
2023-03-07T18:14:16.254Z,14.82
2023-03-07T18:16:43.932Z,12.90
2023-03-07T18:19:25.432Z,13.13
2023-03-07T18:21:52.448Z,12.35
2023-03-07T18:24:21.653Z,13.18
2023-03-07T18:26:51.492Z,14.20
2023-03-07T18:29:19.476Z,15.02
2023-03-07T18:31:46.799Z,12.32
2023-03-07T18:34:15.228Z,13.25
2023-03-07T18:36:51.713Z,12.50
2023-03-07T18:39:19.934Z,13.18
2023-03-07T18:41:46.594Z,14.40
2023-03-07T18:44:13.178Z,13.77
2023-03-07T18:46:39.682Z,11.50
2023-03-07T18:49:08.203Z,12.57
2023-03-07T18:51:35.658Z,14.60
2023-03-07T18:54:03.581Z,11.93
2023-03-07T18:56:30.642Z,13.23
2023-03-07T18:59:01.555Z,11.52
2023-03-07T19:01:35.958Z,12.67
2023-03-07T19:04:05.321Z,12.18
2023-03-07T19:06:35.833Z,12.95
2023-03-07T19:09:03.709Z,12.60
2023-03-07T19:11:31.209Z,13.25
2023-03-07T19:13:59.672Z,11.65
2023-03-07T19:16:28.431Z,12.23
2023-03-07T19:18:58.247Z,13.27
2023-03-07T19:21:28.907Z,9.65
2023-03-07T19:23:57.279Z,10.75
2023-03-07T19:26:24.240Z,12.82
2023-03-07T19:28:52.770Z,11.85
2023-03-07T19:31:25.471Z,11.88
2023-03-07T19:33:55.318Z,10.93
2023-03-07T19:36:28.096Z,11.32
2023-03-07T19:38:58.883Z,11.82
2023-03-07T19:41:27.220Z,12.10
2023-03-07T19:43:55.642Z,11.27
2023-03-07T19:46:22.689Z,11.70
2023-03-07T19:48:50.493Z,10.77
2023-03-07T19:51:24.504Z,12.43
2023-03-07T19:53:51.743Z,10.52
2023-03-07T19:56:22.450Z,11.95
2023-03-07T19:58:49.528Z,13.15
2023-03-07T20:01:19.345Z,13.45
2023-03-07T20:03:47.741Z,10.98
2023-03-07T20:06:29.554Z,12.13
2023-03-07T20:08:56.775Z,12.43
2023-03-07T20:11:28.291Z,9.82
2023-03-07T20:13:56.547Z,13.98
2023-03-07T20:16:24.642Z,11.65
2023-03-07T20:18:52.763Z,11.68
2023-03-07T20:21:21.621Z,11.85
2023-03-07T20:23:48.985Z,11.05
2023-03-07T20:26:22.508Z,12.57
2023-03-07T20:28:57.044Z,12.05
2023-03-07T20:31:25.948Z,11.30
2023-03-07T20:33:52.646Z,12.88
2023-03-07T20:36:27.602Z,12.00
2023-03-07T20:38:57.143Z,10.98
2023-03-07T20:41:27.862Z,11.77
2023-03-07T20:44:00.009Z,12.77
2023-03-07T20:46:27.088Z,13.77
2023-03-07T20:48:55.549Z,12.27
2023-03-07T20:51:27.344Z,12.02
2023-03-07T20:53:59.862Z,12.48
2023-03-07T20:56:28.847Z,13.25
2023-03-07T20:58:56.770Z,11.98
2023-03-07T21:01:25.362Z,10.90
2023-03-07T21:04:08.578Z,11.48
2023-03-07T21:06:36.956Z,12.18
2023-03-07T21:09:07.988Z,11.65
2023-03-07T21:11:36.670Z,11.95
2023-03-07T21:14:03.759Z,12.10
2023-03-07T21:16:30.900Z,11.18
2023-03-07T21:19:02.098Z,11.38
2023-03-07T21:21:30.697Z,12.35
2023-03-07T21:23:57.713Z,11.25
2023-03-07T21:26:27.636Z,11.20
2023-03-07T21:29:00.474Z,12.40
2023-03-07T21:31:29.528Z,11.55
2023-03-07T21:33:59.230Z,11.98
2023-03-07T21:36:27.205Z,11.38
2023-03-07T21:38:54.406Z,11.98
2023-03-07T21:41:27.693Z,11.77
2023-03-07T21:43:55.459Z,12.55
2023-03-07T21:46:23.006Z,10.90
2023-03-07T21:48:49.898Z,10.90
2023-03-07T21:51:18.467Z,11.55
2023-03-07T21:53:45.307Z,12.32
2023-03-07T21:56:13.967Z,10.35
2023-03-07T21:58:40.896Z,12.88
2023-03-07T22:01:17.359Z,11.65
2023-03-07T22:03:44.487Z,11.25
2023-03-07T22:06:14.036Z,13.38
2023-03-07T22:08:41.296Z,11.52
2023-03-07T22:11:09.630Z,11.43
2023-03-07T22:13:39.769Z,11.75
2023-03-07T22:16:09.784Z,12.38
2023-03-07T22:18:36.740Z,12.35
2023-03-07T22:21:14.411Z,12.15
2023-03-07T22:23:41.649Z,11.10
2023-03-07T22:26:12.265Z,10.75
2023-03-07T22:28:40.650Z,12.68
2023-03-07T22:31:12.609Z,10.35
2023-03-07T22:36:08.691Z,10.52
2023-03-07T22:38:35.224Z,11.52
2023-03-07T22:41:22.962Z,10.20
2023-03-07T22:43:49.506Z,12.32
2023-03-07T22:46:15.965Z,11.25
2023-03-07T22:48:44.530Z,10.95
2023-03-07T22:51:17.725Z,10.80
2023-03-07T22:53:44.565Z,10.18
2023-03-07T22:56:20.259Z,10.60
2023-03-07T22:58:46.862Z,10.45
2023-03-07T23:01:28.170Z,10.10
2023-03-07T23:03:56.593Z,10.48
2023-03-07T23:06:25.955Z,11.27
2023-03-07T23:08:53.449Z,11.70
2023-03-07T23:11:23.916Z,12.10
2023-03-07T23:13:50.724Z,10.65
2023-03-07T23:16:21.553Z,10.93
2023-03-07T23:18:54.758Z,11.77
2023-03-07T23:21:29.871Z,11.43
2023-03-07T23:23:57.097Z,11.38
2023-03-07T23:26:29.977Z,11.15
2023-03-07T23:28:58.231Z,11.10
2023-03-07T23:31:28.286Z,11.45
2023-03-07T23:34:03.513Z,9.98
2023-03-07T23:36:30.915Z,10.75
2023-03-07T23:38:58.709Z,9.80
2023-03-07T23:41:27.043Z,11.55
2023-03-07T23:43:55.365Z,10.73
2023-03-07T23:46:22.437Z,12.90
2023-03-07T23:48:50.024Z,11.18
2023-03-07T23:51:16.763Z,12.70
2023-03-07T23:53:44.232Z,10.38
2023-03-07T23:56:12.493Z,13.52
2023-03-07T23:58:48.091Z,14.23
